New Orleans, Louisiana
Traffic Map
Current Weather Conditions
New Orleans, Louisiana
Overcast
Overcast
73°
Feels Like: 73°
Wind Chill: 73° Ceiling: 2700
Heat Index: 73° Visibility: 3mi
Dew Point: 66° Wind: 6mph
Humidity: 78% Direction: 180° (S)
Pressure: 30.07in Gusts: 0mph
Raw Report DataKVSH 231515Z AUTO 18005KT 3SM FEW020 BKN027 OVC060 23/19 A3007 RMK AO1 P0028
Traffic Incident Summary
Active as of:
Severity:
Category:
InformationThere was an issue retrieving the traffic information for this location. Please try a different location or try again shortly.
Advertisements
Track Severe Weather on mobile